createdAt,value
2019-03-03T00:00:56.636Z,95.63
2019-03-03T00:03:27.622Z,96.29
2019-03-03T00:05:58.791Z,96.68
2019-03-03T00:08:29.701Z,97.00
2019-03-03T00:11:00.665Z,97.83
2019-03-03T00:13:31.703Z,97.83
2019-03-03T00:16:02.647Z,97.79
2019-03-03T00:18:33.651Z,97.78
2019-03-03T00:21:04.686Z,97.65
2019-03-03T00:23:35.621Z,97.92
2019-03-03T00:26:06.584Z,97.91
2019-03-03T00:28:37.862Z,97.85
2019-03-03T00:31:08.896Z,97.94
2019-03-03T00:33:44.821Z,98.20
2019-03-03T00:36:16.771Z,98.41
2019-03-03T00:38:58.504Z,98.48
2019-03-03T00:41:49.488Z,98.19
2019-03-03T00:44:22.092Z,97.98
2019-03-03T00:47:01.327Z,97.56
2019-03-03T00:49:33.898Z,97.68
2019-03-03T00:52:09.694Z,97.35
2019-03-03T00:54:45.288Z,97.38
2019-03-03T00:57:26.648Z,97.27
2019-03-03T01:00:01.853Z,96.92
2019-03-03T01:02:37.184Z,96.34
2019-03-03T01:05:13.410Z,96.16
2019-03-03T01:07:52.284Z,95.78
2019-03-03T01:10:24.952Z,95.50
2019-03-03T01:13:00.534Z,95.25
2019-03-03T01:15:45.013Z,95.33
2019-03-03T01:18:20.236Z,95.48
2019-03-03T01:20:58.517Z,95.47
2019-03-03T01:23:47.650Z,95.58
2019-03-03T01:26:18.550Z,95.78
2019-03-03T01:28:49.503Z,95.75
2019-03-03T01:31:20.395Z,95.88
2019-03-03T01:33:51.368Z,96.12
2019-03-03T01:36:22.300Z,96.21
2019-03-03T01:38:53.239Z,96.43
2019-03-03T01:41:24.257Z,96.39
2019-03-03T01:43:55.327Z,96.43
2019-03-03T01:46:26.355Z,96.36
2019-03-03T01:48:57.370Z,96.24
2019-03-03T01:51:28.430Z,95.91
2019-03-03T01:53:59.288Z,95.78
2019-03-03T01:56:30.238Z,95.88
2019-03-03T01:59:01.124Z,95.77
2019-03-03T02:01:32.165Z,95.59
2019-03-03T02:04:03.999Z,95.52
2019-03-03T02:06:34.954Z,95.36
2019-03-03T02:09:08.876Z,94.96
2019-03-03T02:11:40.327Z,94.65
2019-03-03T02:14:11.272Z,94.57
2019-03-03T02:16:42.240Z,94.45
2019-03-03T02:19:13.242Z,94.28
2019-03-03T02:21:44.232Z,94.70
2019-03-03T02:24:15.239Z,94.90
2019-03-03T02:26:46.287Z,94.78
2019-03-03T02:29:17.390Z,94.75
2019-03-03T02:31:48.327Z,94.67
2019-03-03T02:34:19.281Z,94.81
2019-03-03T02:36:50.305Z,94.79
2019-03-03T02:39:21.311Z,94.79
2019-03-03T02:41:52.185Z,94.84
2019-03-03T02:44:23.121Z,94.40
2019-03-03T02:46:54.019Z,94.12
2019-03-03T02:49:25.092Z,93.90
2019-03-03T02:51:56.145Z,93.97
2019-03-03T02:54:27.083Z,93.78
2019-03-03T02:56:58.143Z,93.65
2019-03-03T02:59:29.028Z,93.72
2019-03-03T03:02:00.531Z,93.49
2019-03-03T03:04:31.517Z,93.26
2019-03-03T03:07:07.014Z,93.43
2019-03-03T03:09:39.624Z,93.56
2019-03-03T03:12:14.797Z,93.47
2019-03-03T03:14:50.285Z,93.77
2019-03-03T03:17:39.225Z,93.78
2019-03-03T03:20:14.545Z,93.87
2019-03-03T03:22:52.872Z,93.93
2019-03-03T03:25:25.370Z,94.04
2019-03-03T03:27:59.057Z,93.82
2019-03-03T03:30:31.631Z,93.76
2019-03-03T03:33:20.627Z,93.42
2019-03-03T03:36:05.629Z,93.49
2019-03-03T03:38:38.136Z,92.63
2019-03-03T03:41:22.662Z,91.78
2019-03-03T03:44:04.704Z,91.88
2019-03-03T03:46:37.371Z,91.71
2019-03-03T03:49:09.907Z,91.36
2019-03-03T03:51:44.839Z,91.34
2019-03-03T03:54:22.986Z,91.31
2019-03-03T03:56:55.664Z,91.28
2019-03-03T03:59:37.276Z,91.13
2019-03-03T04:02:09.936Z,91.31
2019-03-03T04:04:54.987Z,91.65
2019-03-03T04:07:27.629Z,91.46
2019-03-03T04:10:00.512Z,91.75
2019-03-03T04:12:33.246Z,91.91
2019-03-03T04:15:23.804Z,91.62
2019-03-03T04:18:02.349Z,91.00
2019-03-03T04:20:51.161Z,90.35
2019-03-03T04:23:41.679Z,89.46
2019-03-03T04:26:14.261Z,89.30
2019-03-03T04:28:46.758Z,88.99
2019-03-03T04:31:19.278Z,88.67
2019-03-03T04:33:51.936Z,88.49
2019-03-03T04:36:27.473Z,88.39
2019-03-03T04:39:00.315Z,88.07
2019-03-03T04:41:32.889Z,87.90
2019-03-03T04:44:08.527Z,87.84
2019-03-03T04:46:44.002Z,87.71
2019-03-03T04:49:28.574Z,87.38
2019-03-03T04:52:01.226Z,86.93
2019-03-03T04:54:33.750Z,86.92
2019-03-03T04:57:18.454Z,86.52
2019-03-03T05:00:07.340Z,86.42
2019-03-03T05:02:45.474Z,86.56
2019-03-03T05:05:18.147Z,86.39
2019-03-03T05:07:59.676Z,86.90
2019-03-03T05:10:48.397Z,87.44
2019-03-03T05:13:23.486Z,87.39
2019-03-03T05:16:12.618Z,87.72
2019-03-03T05:18:51.152Z,87.58
2019-03-03T05:21:22.104Z,87.90
2019-03-03T05:23:52.989Z,88.20
2019-03-03T05:26:24.019Z,88.31
2019-03-03T05:28:55.141Z,88.26
2019-03-03T05:31:26.341Z,88.69
2019-03-03T05:33:57.291Z,88.97
2019-03-03T05:36:28.216Z,88.79
2019-03-03T05:38:59.432Z,88.22
2019-03-03T05:41:30.445Z,88.30
2019-03-03T05:44:01.343Z,88.46
2019-03-03T05:46:32.241Z,88.08
2019-03-03T05:49:03.267Z,87.41
2019-03-03T05:51:34.208Z,87.17
2019-03-03T05:54:05.280Z,86.75
2019-03-03T05:56:36.165Z,86.57
2019-03-03T05:59:07.051Z,86.05
2019-03-03T06:01:38.046Z,85.71
2019-03-03T06:04:08.874Z,85.24
2019-03-03T06:06:39.834Z,84.84
2019-03-03T06:09:10.704Z,84.87
2019-03-03T06:11:41.727Z,85.01
2019-03-03T06:14:12.963Z,84.68
2019-03-03T06:16:43.919Z,84.32
2019-03-03T06:19:14.759Z,83.89
2019-03-03T06:21:45.738Z,83.68
2019-03-03T06:24:16.687Z,83.21
2019-03-03T06:26:48.059Z,83.31
2019-03-03T06:29:18.924Z,83.07
2019-03-03T06:31:49.972Z,82.91
2019-03-03T06:34:20.846Z,82.90
2019-03-03T06:36:51.792Z,82.74
2019-03-03T06:39:22.712Z,82.54
2019-03-03T06:41:53.639Z,82.78
2019-03-03T06:44:24.587Z,82.77
2019-03-03T06:46:55.520Z,82.37
2019-03-03T06:49:26.448Z,82.05
2019-03-03T06:51:57.364Z,81.56
2019-03-03T06:54:28.382Z,81.50
2019-03-03T06:56:59.268Z,80.81
2019-03-03T06:59:30.232Z,80.42
2019-03-03T07:02:01.120Z,79.86
2019-03-03T07:04:31.982Z,79.63
2019-03-03T07:07:02.939Z,78.99
2019-03-03T07:09:33.862Z,78.63
2019-03-03T07:12:04.868Z,78.26
2019-03-03T07:14:35.892Z,78.56
2019-03-03T07:17:06.852Z,77.87
2019-03-03T07:19:37.776Z,77.52
2019-03-03T07:22:08.830Z,77.06
2019-03-03T07:24:39.770Z,76.76
2019-03-03T07:27:11.165Z,76.13
2019-03-03T07:29:42.065Z,76.15
2019-03-03T07:32:13.090Z,75.67
2019-03-03T07:34:43.958Z,74.89
2019-03-03T07:37:14.841Z,74.50
2019-03-03T07:39:45.887Z,74.31
2019-03-03T07:42:16.795Z,74.32
2019-03-03T07:44:48.117Z,73.93
2019-03-03T07:47:19.218Z,73.45
2019-03-03T07:49:50.164Z,73.33
2019-03-03T07:52:21.175Z,71.84
2019-03-03T07:54:52.216Z,72.29
2019-03-03T07:57:23.109Z,72.38
2019-03-03T07:59:53.966Z,71.39
2019-03-03T08:02:24.972Z,71.81
2019-03-03T08:04:56.007Z,71.42
2019-03-03T08:07:26.978Z,71.32
2019-03-03T08:09:58.515Z,70.35
2019-03-03T08:12:29.449Z,70.60
2019-03-03T08:15:00.342Z,69.69
2019-03-03T08:17:31.420Z,69.68
2019-03-03T08:20:02.374Z,69.78
2019-03-03T08:22:35.085Z,69.39
2019-03-03T08:25:10.679Z,69.79
2019-03-03T08:27:41.750Z,69.60
2019-03-03T08:30:19.468Z,69.76
2019-03-03T08:32:50.411Z,69.51
2019-03-03T08:35:29.333Z,69.75
2019-03-03T08:38:01.083Z,69.75
2019-03-03T08:40:35.365Z,70.38
2019-03-03T08:43:07.993Z,70.34
2019-03-03T08:45:46.733Z,70.70
2019-03-03T08:48:19.413Z,70.77
2019-03-03T08:51:04.062Z,70.99
2019-03-03T08:53:36.810Z,70.80
2019-03-03T08:56:12.302Z,71.74
2019-03-03T08:58:47.998Z,70.78
2019-03-03T09:01:36.866Z,70.66
2019-03-03T09:04:21.101Z,71.13
2019-03-03T09:06:56.233Z,70.81
2019-03-03T09:09:39.125Z,71.13
2019-03-03T09:12:11.825Z,71.28
2019-03-03T09:14:44.343Z,71.08
2019-03-03T09:17:32.486Z,71.05
2019-03-03T09:20:07.179Z,70.67
2019-03-03T09:22:39.750Z,70.31
2019-03-03T09:25:27.427Z,70.10
2019-03-03T09:28:03.119Z,70.38
2019-03-03T09:30:44.732Z,70.22
2019-03-03T09:33:33.946Z,69.84
2019-03-03T09:36:09.271Z,70.52
2019-03-03T09:38:50.828Z,69.97
2019-03-03T09:41:26.243Z,70.55
2019-03-03T09:44:14.238Z,69.89
2019-03-03T09:46:52.939Z,69.41
2019-03-03T09:49:39.257Z,69.09
2019-03-03T09:52:11.828Z,69.31
2019-03-03T09:54:44.497Z,68.66
2019-03-03T09:57:17.309Z,68.82
2019-03-03T09:59:49.947Z,68.89
2019-03-03T10:02:22.657Z,68.68
2019-03-03T10:05:10.591Z,68.47
2019-03-03T10:07:58.517Z,68.26
2019-03-03T10:10:37.293Z,67.17
2019-03-03T10:13:22.071Z,66.45
2019-03-03T10:15:55.541Z,66.01
2019-03-03T10:18:32.132Z,65.76
2019-03-03T10:21:04.673Z,65.29
2019-03-03T10:23:46.462Z,65.60
2019-03-03T10:26:31.065Z,64.68
2019-03-03T10:29:19.005Z,63.75
2019-03-03T10:32:08.224Z,64.06
2019-03-03T10:34:50.385Z,64.06
2019-03-03T10:37:25.814Z,63.84
2019-03-03T10:40:25.631Z,63.85
2019-03-03T10:43:06.744Z,64.13
2019-03-03T10:45:48.238Z,65.04
2019-03-03T10:48:23.547Z,64.63
2019-03-03T10:50:58.931Z,64.78
2019-03-03T10:53:31.645Z,64.51
2019-03-03T10:56:21.547Z,64.88
2019-03-03T10:59:00.992Z,64.81
2019-03-03T11:01:49.944Z,65.58
2019-03-03T11:04:28.385Z,66.16
2019-03-03T11:07:06.745Z,65.80
2019-03-03T11:09:39.325Z,65.00
2019-03-03T11:12:30.159Z,65.68
2019-03-03T11:15:05.532Z,65.10
2019-03-03T11:17:54.586Z,65.16
2019-03-03T11:20:39.686Z,65.62
2019-03-03T11:23:28.678Z,65.38
2019-03-03T11:26:13.527Z,65.41
2019-03-03T11:29:02.621Z,65.40
2019-03-03T11:31:47.223Z,65.68
2019-03-03T11:34:19.917Z,65.98
2019-03-03T11:36:52.658Z,65.94
2019-03-03T11:39:35.139Z,66.18
2019-03-03T11:42:07.950Z,65.92
2019-03-03T11:44:46.196Z,65.75
2019-03-03T11:47:35.228Z,66.35
2019-03-03T11:50:17.248Z,66.76
2019-03-03T11:52:52.385Z,66.95
2019-03-03T11:55:25.282Z,67.21
2019-03-03T11:58:00.439Z,67.52
2019-03-03T12:00:36.604Z,67.28
2019-03-03T12:03:25.895Z,67.09
2019-03-03T12:05:58.624Z,67.50
2019-03-03T12:08:31.229Z,67.26
2019-03-03T12:11:03.852Z,67.39
2019-03-03T12:13:39.140Z,67.27
2019-03-03T12:16:18.898Z,67.43
2019-03-03T12:18:51.601Z,67.92
2019-03-03T12:21:24.362Z,67.86
2019-03-03T12:24:05.868Z,68.06
2019-03-03T12:26:54.584Z,67.60
2019-03-03T12:29:42.038Z,67.08
2019-03-03T12:32:20.651Z,66.80
2019-03-03T12:35:09.628Z,66.70
2019-03-03T12:37:49.231Z,66.73
2019-03-03T12:40:24.734Z,66.75
2019-03-03T12:43:00.072Z,66.70
2019-03-03T12:45:38.998Z,66.96
2019-03-03T12:48:13.284Z,66.62
2019-03-03T12:50:48.577Z,67.17
2019-03-03T12:53:25.788Z,66.71
2019-03-03T12:56:14.153Z,67.17
2019-03-03T12:58:55.870Z,66.81
2019-03-03T13:01:45.367Z,67.01
2019-03-03T13:04:21.358Z,67.14
2019-03-03T13:06:59.794Z,66.57
2019-03-03T13:09:35.301Z,67.07
2019-03-03T13:12:23.760Z,67.12
2019-03-03T13:15:04.945Z,67.25
2019-03-03T13:17:48.310Z,67.53
2019-03-03T13:20:20.688Z,67.41
2019-03-03T13:22:59.537Z,66.57
2019-03-03T13:25:41.093Z,66.51
2019-03-03T13:28:30.057Z,66.33
2019-03-03T13:31:16.353Z,66.45
2019-03-03T13:34:06.590Z,66.80
2019-03-03T13:36:48.648Z,66.16
2019-03-03T13:39:21.517Z,65.60
2019-03-03T13:42:10.531Z,65.53
2019-03-03T13:44:45.746Z,65.79
2019-03-03T13:47:16.909Z,65.44
2019-03-03T13:49:47.894Z,65.04
2019-03-03T13:52:21.739Z,65.77
2019-03-03T13:54:54.174Z,65.98
2019-03-03T13:57:26.488Z,65.36
2019-03-03T13:59:58.901Z,65.77
2019-03-03T14:02:29.942Z,65.22
2019-03-03T14:05:01.226Z,65.89
2019-03-03T14:07:33.787Z,66.04
2019-03-03T14:10:06.840Z,66.20
2019-03-03T14:12:39.721Z,66.09
2019-03-03T14:15:13.233Z,66.10
2019-03-03T14:20:22.796Z,65.86
2019-03-03T14:22:54.292Z,66.24
2019-03-03T14:25:25.698Z,65.15
2019-03-03T14:27:57.069Z,65.33
2019-03-03T14:30:29.045Z,64.86
2019-03-03T14:33:00.111Z,64.33
2019-03-03T14:35:31.113Z,63.86
2019-03-03T14:38:02.154Z,64.21
2019-03-03T14:40:33.378Z,63.97
2019-03-03T14:43:04.753Z,64.24
2019-03-03T14:45:38.647Z,64.61
2019-03-03T14:48:11.008Z,64.17
2019-03-03T14:50:41.945Z,64.55
2019-03-03T14:53:12.863Z,64.78
2019-03-03T14:55:43.790Z,64.40
2019-03-03T14:58:15.011Z,64.90
2019-03-03T15:00:46.063Z,64.35
2019-03-03T15:03:17.178Z,64.02
2019-03-03T15:05:48.950Z,63.87
2019-03-03T15:08:19.909Z,63.62
2019-03-03T15:10:51.783Z,63.85
2019-03-03T15:13:22.748Z,63.38
2019-03-03T15:15:53.780Z,63.83
2019-03-03T15:18:24.738Z,63.10
2019-03-03T15:20:55.722Z,62.95
2019-03-03T15:23:26.655Z,62.89
2019-03-03T15:25:57.619Z,61.64
2019-03-03T15:28:32.496Z,62.01
2019-03-03T15:31:03.604Z,61.48
2019-03-03T15:33:34.590Z,61.80
2019-03-03T15:36:05.704Z,61.73
2019-03-03T15:38:36.856Z,61.94
2019-03-03T15:41:07.882Z,61.92
2019-03-03T15:43:38.746Z,62.26
2019-03-03T15:46:09.723Z,62.40
2019-03-03T15:48:40.691Z,62.72
2019-03-03T15:51:11.854Z,62.84
2019-03-03T15:53:43.097Z,63.53
2019-03-03T15:56:16.008Z,63.31
2019-03-03T15:58:55.404Z,63.62
2019-03-03T16:01:20.102Z,63.62
2019-03-03T16:03:51.134Z,63.81
2019-03-03T16:06:22.172Z,63.75
2019-03-03T16:08:53.279Z,64.00
2019-03-03T16:11:24.523Z,63.89
2019-03-03T16:13:55.487Z,63.94
2019-03-03T16:16:26.462Z,64.09
2019-03-03T16:18:57.447Z,64.23
2019-03-03T16:21:28.494Z,64.21
2019-03-03T16:23:59.742Z,64.36
2019-03-03T16:26:30.770Z,64.34
2019-03-03T16:29:01.778Z,64.45
2019-03-03T16:31:32.704Z,64.87
2019-03-03T16:34:03.826Z,64.99
2019-03-03T16:36:38.123Z,64.96
2019-03-03T16:39:09.957Z,65.07
2019-03-03T16:41:40.844Z,65.26
2019-03-03T16:44:11.882Z,65.14
2019-03-03T16:46:43.030Z,65.72
2019-03-03T16:49:13.980Z,65.53
2019-03-03T16:51:45.128Z,65.70
2019-03-03T16:54:16.090Z,65.54
2019-03-03T16:56:47.142Z,65.57
2019-03-03T16:59:18.249Z,65.45
2019-03-03T17:01:49.372Z,65.43
2019-03-03T17:04:20.512Z,65.72
2019-03-03T17:06:51.768Z,65.77
2019-03-03T17:09:25.979Z,65.90
2019-03-03T17:11:57.151Z,65.83
2019-03-03T17:14:28.364Z,65.89
2019-03-03T17:17:02.223Z,66.10
2019-03-03T17:19:33.455Z,66.09
2019-03-03T17:22:05.028Z,66.51
2019-03-03T17:24:36.309Z,66.45
2019-03-03T17:27:07.518Z,66.67
2019-03-03T17:29:38.502Z,66.59
2019-03-03T17:32:09.469Z,66.64
2019-03-03T17:34:40.886Z,66.65
2019-03-03T17:37:12.441Z,66.73
2019-03-03T17:39:43.661Z,66.75
2019-03-03T17:42:16.883Z,66.86
2019-03-03T17:44:50.836Z,67.10
2019-03-03T17:47:21.792Z,67.11
2019-03-03T17:49:52.858Z,67.33
2019-03-03T17:52:23.950Z,67.45
2019-03-03T17:54:55.377Z,67.99
2019-03-03T17:57:26.525Z,68.27
2019-03-03T17:59:57.539Z,68.32
2019-03-03T18:02:29.609Z,68.59
2019-03-03T18:05:00.827Z,68.80
2019-03-03T18:07:31.922Z,68.91
2019-03-03T18:10:03.501Z,69.17
2019-03-03T18:12:34.635Z,69.28
2019-03-03T18:15:08.547Z,69.18
2019-03-03T18:17:40.113Z,69.41
2019-03-03T18:20:22.067Z,69.81
2019-03-03T18:22:53.249Z,69.90
2019-03-03T18:25:24.248Z,70.28
2019-03-03T18:27:55.271Z,71.07
2019-03-03T18:30:29.535Z,70.45
2019-03-03T18:33:00.543Z,70.42
2019-03-03T18:35:31.589Z,70.52
2019-03-03T18:38:02.617Z,71.16
2019-03-03T18:40:33.769Z,70.55
2019-03-03T18:43:04.796Z,70.81
2019-03-03T18:45:35.848Z,70.81
2019-03-03T18:48:06.875Z,71.04
2019-03-03T18:50:37.911Z,71.11
2019-03-03T18:53:08.851Z,71.04
2019-03-03T18:55:39.845Z,71.30
2019-03-03T18:58:10.791Z,71.43
2019-03-03T19:00:41.847Z,71.45
2019-03-03T19:03:13.017Z,71.99
2019-03-03T19:05:44.064Z,72.20
2019-03-03T19:08:15.332Z,72.34
2019-03-03T19:10:46.410Z,72.64
2019-03-03T19:13:17.678Z,72.65
2019-03-03T19:15:48.663Z,72.90
2019-03-03T19:18:19.727Z,73.04
2019-03-03T19:20:50.829Z,73.12
2019-03-03T19:23:22.751Z,73.33
2019-03-03T19:25:53.888Z,73.48
2019-03-03T19:28:36.435Z,73.62
2019-03-03T19:31:14.488Z,73.76
2019-03-03T19:33:48.652Z,74.04
2019-03-03T19:36:19.700Z,74.18
2019-03-03T19:38:52.176Z,73.90
2019-03-03T19:41:24.815Z,74.10
2019-03-03T19:43:55.885Z,73.98
2019-03-03T19:46:27.152Z,74.57
2019-03-03T19:48:58.180Z,74.80
2019-03-03T19:51:29.294Z,75.22
2019-03-03T19:54:00.288Z,75.46
2019-03-03T19:56:37.631Z,75.84
2019-03-03T19:59:08.693Z,75.78
2019-03-03T20:01:41.984Z,75.72
2019-03-03T20:04:13.189Z,75.90
2019-03-03T20:06:44.995Z,76.16
2019-03-03T20:09:17.963Z,76.29
2019-03-03T20:11:49.026Z,76.27
2019-03-03T20:14:20.056Z,76.62
2019-03-03T20:16:51.385Z,76.66
2019-03-03T20:19:22.370Z,76.92
2019-03-03T20:21:54.612Z,77.12
2019-03-03T20:24:28.434Z,77.13
2019-03-03T20:26:59.724Z,78.29
2019-03-03T20:29:34.014Z,78.84
2019-03-03T20:32:06.874Z,78.90
2019-03-03T20:34:38.059Z,79.03
2019-03-03T20:37:09.264Z,79.06
2019-03-03T20:39:40.146Z,78.99
2019-03-03T20:42:11.563Z,78.78
2019-03-03T20:44:45.650Z,78.61
2019-03-03T20:47:17.230Z,78.69
2019-03-03T20:49:48.120Z,78.90
2019-03-03T20:52:19.182Z,79.24
2019-03-03T20:54:50.090Z,79.24
2019-03-03T20:57:21.720Z,79.22
2019-03-03T20:59:52.911Z,79.10
2019-03-03T21:02:26.327Z,78.86
2019-03-03T21:04:58.038Z,78.88
2019-03-03T21:07:28.916Z,78.74
2019-03-03T21:10:01.247Z,78.76
2019-03-03T21:12:32.542Z,78.70
2019-03-03T21:15:06.330Z,78.74
2019-03-03T21:17:37.361Z,78.78
2019-03-03T21:20:11.046Z,78.67
2019-03-03T21:22:42.659Z,78.60
2019-03-03T21:25:15.144Z,78.71
2019-03-03T21:27:46.818Z,78.88
2019-03-03T21:30:19.615Z,78.81
2019-03-03T21:32:50.629Z,78.85
2019-03-03T21:35:21.642Z,78.51
2019-03-03T21:37:52.911Z,78.38
2019-03-03T21:40:28.030Z,78.02
2019-03-03T21:42:59.153Z,77.50
2019-03-03T21:45:30.601Z,77.12
2019-03-03T21:48:01.556Z,76.96
2019-03-03T21:50:32.803Z,76.98
2019-03-03T21:53:03.852Z,76.48
2019-03-03T21:55:34.804Z,76.30
2019-03-03T21:58:07.043Z,76.30
2019-03-03T22:00:40.850Z,75.92
2019-03-03T22:03:11.809Z,75.83
2019-03-03T22:05:42.847Z,76.00
2019-03-03T22:08:13.708Z,75.62
2019-03-03T22:10:44.693Z,75.68
2019-03-03T22:13:15.762Z,75.25
2019-03-03T22:15:46.672Z,74.99
2019-03-03T22:18:17.585Z,75.10
2019-03-03T22:20:48.605Z,74.91
2019-03-03T22:23:19.630Z,74.94
2019-03-03T22:25:50.610Z,75.12
2019-03-03T22:28:21.617Z,75.04
2019-03-03T22:30:52.945Z,75.11
2019-03-03T22:33:23.918Z,74.67
2019-03-03T22:35:54.913Z,74.96
2019-03-03T22:38:25.879Z,74.92
2019-03-03T22:40:56.915Z,75.22
2019-03-03T22:43:27.949Z,74.95
2019-03-03T22:45:58.885Z,75.00
2019-03-03T22:48:29.836Z,74.74
2019-03-03T22:51:00.825Z,74.51
2019-03-03T22:53:31.808Z,74.38
2019-03-03T22:56:02.744Z,74.11
2019-03-03T22:58:33.679Z,74.07
2019-03-03T23:01:08.040Z,74.36
2019-03-03T23:03:42.044Z,74.25
2019-03-03T23:06:18.891Z,74.09
2019-03-03T23:08:55.744Z,74.05
2019-03-03T23:11:56.937Z,74.04
2019-03-03T23:14:59.725Z,73.73
2019-03-03T23:17:57.789Z,73.58
2019-03-03T23:20:31.687Z,73.62
2019-03-03T23:23:20.965Z,73.32
2019-03-03T23:25:52.936Z,73.35
2019-03-03T23:28:24.387Z,73.50
2019-03-03T23:30:55.501Z,73.33
2019-03-03T23:33:26.435Z,73.49
2019-03-03T23:35:57.396Z,73.76
2019-03-03T23:38:28.499Z,74.07
2019-03-03T23:40:59.547Z,74.35
2019-03-03T23:43:30.413Z,74.42
2019-03-03T23:46:01.423Z,74.43
2019-03-03T23:48:32.387Z,74.11
2019-03-03T23:51:06.279Z,73.72
2019-03-03T23:53:37.664Z,73.58
2019-03-03T23:56:08.703Z,73.31
2019-03-03T23:58:39.886Z,73.26
